Time;durP1;ratioP1;P1;durP2;ratioP2;P2;SDS_P1;SDS_P2;PMS_P1;PMS_P2;Temp;Humidity;BMP_temperature;BMP_pressure;BME280_temperature;BME280_humidity;BME280_pressure;Samples;Min_cycle;Max_cycle;Signal;HPM_P1;HPM_P2
2022/11/25 00:00:49;;;;;;;11.43;2.60;;;8.70;99.90;;;;;;5092943;28;20050;-87
2022/11/25 00:03:14;;;;;;;11.10;3.00;;;8.70;99.90;;;;;;5092666;28;20036;-87
2022/11/25 00:05:40;;;;;;;15.60;2.75;;;8.70;99.90;;;;;;5092907;28;20036;-87
2022/11/25 00:08:05;;;;;;;14.63;3.03;;;8.70;99.90;;;;;;5075794;28;20128;-87
2022/11/25 00:10:31;;;;;;;12.27;2.67;;;8.70;99.90;;;;;;5075930;28;20142;-87
2022/11/25 00:12:56;;;;;;;18.52;3.80;;;8.70;99.90;;;;;;5092474;28;20036;-87
2022/11/25 00:15:22;;;;;;;13.07;2.78;;;8.70;99.90;;;;;;5075874;28;20141;-87
2022/11/25 00:17:47;;;;;;;13.30;2.42;;;8.70;99.90;;;;;;5075795;28;20048;-87
2022/11/25 00:20:13;;;;;;;15.30;3.08;;;8.70;99.90;;;;;;5092638;28;20101;-87
2022/11/25 00:22:39;;;;;;;16.75;3.13;;;8.70;99.90;;;;;;5092073;28;20120;-87
2022/11/25 00:25:05;;;;;;;10.30;2.35;;;8.80;99.90;;;;;;5075430;28;20032;-87
2022/11/25 00:27:30;;;;;;;13.75;2.70;;;8.80;99.90;;;;;;5075608;28;20043;-87
2022/11/25 00:29:56;;;;;;;12.07;2.70;;;8.80;99.90;;;;;;5092390;28;20044;-87
2022/11/25 00:32:22;;;;;;;15.75;2.72;;;8.80;99.90;;;;;;5092466;28;20131;-87
2022/11/25 00:34:47;;;;;;;11.45;2.67;;;8.80;99.90;;;;;;5075444;28;20517;-87
2022/11/25 00:37:13;;;;;;;14.15;2.63;;;8.90;99.90;;;;;;5075221;28;20128;-87
2022/11/25 00:39:38;;;;;;;13.00;2.95;;;8.80;99.90;;;;;;5091706;28;20039;-87
2022/11/25 00:44:48;;;;;;;13.63;2.88;;;8.90;99.90;;;;;;5092138;28;20044;-87
2022/11/25 00:47:18;;;;;;;18.80;3.25;;;8.90;99.90;;;;;;5092145;28;20036;-87
2022/11/25 00:49:46;;;;;;;9.77;2.50;;;8.90;99.90;;;;;;5101930;28;20105;-87
2022/11/25 00:52:20;;;;;;;10.45;2.17;;;8.90;99.90;;;;;;5094036;28;20043;-87
2022/11/25 00:54:46;;;;;;;13.57;2.92;;;8.90;99.90;;;;;;5092056;28;20454;-87
2022/11/25 00:57:13;;;;;;;12.20;2.50;;;8.90;99.90;;;;;;5091821;28;20050;-87
2022/11/25 00:59:39;;;;;;;9.68;2.72;;;8.90;99.90;;;;;;5091779;28;20032;-87
2022/11/25 01:02:05;;;;;;;14.55;2.65;;;8.90;99.90;;;;;;5091322;28;20509;-87
2022/11/25 01:04:32;;;;;;;12.75;2.30;;;8.90;99.90;;;;;;5074889;28;20071;-87
2022/11/25 01:06:58;;;;;;;13.93;3.03;;;8.90;99.90;;;;;;5091676;28;20082;-87
2022/11/25 01:09:26;;;;;;;14.07;3.15;;;8.90;99.90;;;;;;5091910;28;20052;-86
2022/11/25 01:11:52;;;;;;;12.18;2.65;;;8.90;99.90;;;;;;5091671;28;20071;-87
2022/11/25 01:14:19;;;;;;;12.45;2.75;;;8.80;99.90;;;;;;5091268;28;20039;-87
2022/11/25 01:16:44;;;;;;;10.45;2.53;;;8.90;99.90;;;;;;5091472;28;20123;-87
2022/11/25 01:19:11;;;;;;;13.25;2.97;;;8.90;99.90;;;;;;5091473;28;20123;-87
2022/11/25 01:21:37;;;;;;;13.15;3.00;;;8.90;99.90;;;;;;5091799;28;20500;-87
2022/11/25 01:24:05;;;;;;;12.02;3.88;;;8.90;99.90;;;;;;5074391;28;20520;-87
2022/11/25 01:26:31;;;;;;;11.55;2.53;;;8.90;99.90;;;;;;5091249;28;20032;-87
2022/11/25 01:28:59;;;;;;;7.45;2.22;;;8.90;99.90;;;;;;5074596;28;20047;-87
2022/11/25 01:31:27;;;;;;;16.75;2.70;;;8.90;99.90;;;;;;5091005;28;20035;-87
2022/11/25 01:33:59;;;;;;;18.38;2.95;;;8.90;99.90;;;;;;5090911;28;20032;-86
2022/11/25 01:36:25;;;;;;;11.40;3.25;;;8.90;99.90;;;;;;5074173;28;20047;-86
2022/11/25 01:38:53;;;;;;;12.88;2.45;;;8.90;99.90;;;;;;5091111;28;20040;-87
2022/11/25 01:41:20;;;;;;;13.63;3.67;;;8.90;99.90;;;;;;5090838;28;20040;-87
2022/11/25 01:44:08;;;;;;;11.80;2.60;;;8.90;99.90;;;;;;5074228;28;20036;-86
2022/11/25 01:46:41;;;;;;;16.23;3.00;;;8.90;99.90;;;;;;5091066;28;20570;-87
2022/11/25 01:49:11;;;;;;;;;;;9.00;99.90;;;;;;5091521;28;20047;-87
2022/11/25 01:51:51;;;;;;;11.32;2.80;;;9.00;99.90;;;;;;5125271;27;20341;-87
2022/11/25 01:54:21;;;;;;;13.00;2.53;;;9.00;99.90;;;;;;5090465;28;20097;-87
2022/11/25 01:56:57;;;;;;;13.77;2.85;;;9.00;99.90;;;;;;5090880;28;20067;-87
2022/11/25 01:59:24;;;;;;;11.50;2.85;;;9.00;99.90;;;;;;5073910;28;20048;-87
2022/11/25 02:01:50;;;;;;;17.42;3.22;;;9.00;99.90;;;;;;5090757;28;20032;-87
2022/11/25 02:04:17;;;;;;;15.85;2.97;;;9.00;99.90;;;;;;5089775;28;20090;-87
2022/11/25 02:06:57;;;;;;;12.23;3.72;;;9.00;99.90;;;;;;5090638;28;20031;-87
2022/11/25 02:09:25;;;;;;;14.10;3.40;;;9.00;99.90;;;;;;5090652;28;20487;-87
2022/11/25 02:11:51;;;;;;;9.63;3.03;;;9.00;99.90;;;;;;5090657;28;20044;-87
2022/11/25 02:14:18;;;;;;;11.13;2.60;;;9.00;99.90;;;;;;5090603;28;20493;-87
2022/11/25 02:16:44;;;;;;;12.90;2.63;;;9.00;99.90;;;;;;5090543;28;20127;-87
2022/11/25 02:19:23;;;;;;;16.00;4.28;;;9.00;99.90;;;;;;5090475;28;20131;-86
2022/11/25 02:21:58;;;;;;;16.48;3.08;;;9.00;99.90;;;;;;5090774;28;20040;-86
2022/11/25 02:24:37;;;;;;;14.23;2.92;;;9.00;99.90;;;;;;5090184;28;20077;-87
2022/11/25 02:27:03;;;;;;;11.32;3.03;;;9.00;99.90;;;;;;5091699;28;20086;-87
2022/11/25 02:29:28;;;;;;;12.25;2.75;;;9.00;99.90;;;;;;5090545;28;20447;-87
2022/11/25 02:31:54;;;;;;;11.35;2.75;;;9.00;99.90;;;;;;5090519;28;20044;-87
2022/11/25 02:34:20;;;;;;;12.38;2.42;;;9.00;99.90;;;;;;5073371;28;20548;-87
2022/11/25 02:36:45;;;;;;;11.05;2.92;;;9.00;99.90;;;;;;5073440;28;20044;-87
2022/11/25 02:39:12;;;;;;;11.68;2.60;;;9.00;99.90;;;;;;5073800;28;20078;-87
2022/11/25 02:41:48;;;;;;;13.27;2.60;;;9.00;99.90;;;;;;5090450;28;20036;-87
2022/11/25 02:44:14;;;;;;;13.18;2.92;;;9.00;99.90;;;;;;5073162;28;20485;-87
2022/11/25 02:46:39;;;;;;;11.80;2.30;;;9.00;99.90;;;;;;5090494;28;20039;-87
2022/11/25 02:49:06;;;;;;;11.43;2.67;;;9.00;99.90;;;;;;5073541;28;20036;-87
2022/11/25 02:51:32;;;;;;;14.07;2.67;;;9.00;99.90;;;;;;5090446;28;20139;-87
2022/11/25 02:53:58;;;;;;;11.77;2.95;;;9.00;99.90;;;;;;5089863;28;20540;-87
2022/11/25 02:56:27;;;;;;;17.10;2.95;;;9.00;99.90;;;;;;5090207;28;20119;-87
2022/11/25 02:58:52;;;;;;;9.57;2.75;;;9.00;99.90;;;;;;5073370;28;20127;-87
2022/11/25 03:01:18;;;;;;;16.60;3.03;;;9.10;99.90;;;;;;5090224;28;20119;-87
2022/11/25 03:03:43;;;;;;;12.02;2.35;;;9.10;99.90;;;;;;5090207;28;20036;-87
2022/11/25 03:06:09;;;;;;;11.88;2.78;;;9.10;99.90;;;;;;5073129;28;20481;-87
2022/11/25 03:08:35;;;;;;;15.25;2.65;;;9.10;99.90;;;;;;5073380;28;20028;-87
2022/11/25 03:11:01;;;;;;;14.75;3.17;;;9.10;99.90;;;;;;5073290;28;20039;-87
2022/11/25 03:13:27;;;;;;;12.32;3.30;;;9.10;99.90;;;;;;5089975;28;20386;-87
2022/11/25 03:15:53;;;;;;;13.10;2.50;;;9.10;99.90;;;;;;5092240;28;20116;-87
2022/11/25 03:18:18;;;;;;;14.05;3.17;;;9.00;99.90;;;;;;5077175;28;20427;-87
2022/11/25 03:20:44;;;;;;;12.35;3.05;;;9.10;99.90;;;;;;5076858;28;20090;-87
2022/11/25 03:23:09;;;;;;;15.52;2.75;;;9.10;99.90;;;;;;5093336;28;20036;-87
2022/11/25 03:25:35;;;;;;;11.65;2.58;;;9.10;99.90;;;;;;5093705;28;20036;-87
2022/11/25 03:28:01;;;;;;;14.35;2.97;;;9.10;99.90;;;;;;5093501;28;20039;-87
2022/11/25 03:30:28;;;;;;;15.55;3.08;;;9.10;99.90;;;;;;5093765;28;20548;-87
2022/11/25 03:32:54;;;;;;;11.57;2.75;;;9.10;99.90;;;;;;5093279;28;20100;-87
2022/11/25 03:35:20;;;;;;;11.55;2.55;;;9.10;99.90;;;;;;5093422;28;20048;-87
2022/11/25 03:37:45;;;;;;;14.35;3.25;;;9.10;99.90;;;;;;5093712;28;20055;-87
2022/11/25 03:40:13;;;;;;;10.10;3.05;;;9.10;99.90;;;;;;5093368;28;20409;-87
2022/11/25 03:42:39;;;;;;;11.38;2.63;;;9.10;99.90;;;;;;5093055;28;20119;-87
2022/11/25 03:45:06;;;;;;;10.25;2.85;;;9.10;99.90;;;;;;5093464;28;20123;-87
2022/11/25 03:47:32;;;;;;;8.32;3.47;;;9.10;99.90;;;;;;5076726;28;20100;-87
2022/11/25 03:49:58;;;;;;;12.57;2.83;;;9.10;99.90;;;;;;5076394;28;20560;-87
2022/11/25 03:52:23;;;;;;;13.65;2.88;;;9.10;99.90;;;;;;5092788;28;20040;-87
2022/11/25 03:54:49;;;;;;;13.40;2.80;;;9.10;99.90;;;;;;5093114;28;20050;-87
2022/11/25 03:57:15;;;;;;;14.88;3.33;;;9.10;99.90;;;;;;5076084;28;20039;-87
2022/11/25 03:59:40;;;;;;;13.05;3.58;;;9.10;99.90;;;;;;5092968;28;20043;-87
2022/11/25 04:02:06;;;;;;;11.88;2.80;;;9.10;99.90;;;;;;5075740;28;20097;-87
2022/11/25 04:04:31;;;;;;;14.73;2.88;;;9.10;99.90;;;;;;5076149;28;20036;-87
2022/11/25 04:06:57;;;;;;;13.27;3.13;;;9.10;99.90;;;;;;5092799;28;20036;-87
2022/11/25 04:09:24;;;;;;;14.63;3.42;;;9.10;99.90;;;;;;5093158;28;20086;-87
2022/11/25 04:14:34;;;;;;;12.65;2.67;;;9.10;99.90;;;;;;5092720;28;20501;-85
2022/11/25 04:17:00;;;;;;;14.00;3.10;;;9.10;99.90;;;;;;5092656;28;20076;-86
2022/11/25 04:19:25;;;;;;;17.00;3.97;;;9.10;99.90;;;;;;5092656;28;20054;-86
2022/11/25 04:21:52;;;;;;;10.13;3.22;;;9.10;99.90;;;;;;5092705;28;20032;-86
2022/11/25 04:24:17;;;;;;;18.17;3.70;;;9.10;99.90;;;;;;5075261;28;20035;-86
2022/11/25 04:26:43;;;;;;;13.02;2.70;;;9.10;99.90;;;;;;5091698;28;20067;-86
2022/11/25 04:29:09;;;;;;;12.50;2.97;;;9.10;99.90;;;;;;5075612;28;20068;-86
2022/11/25 04:31:36;;;;;;;13.82;2.92;;;9.10;99.90;;;;;;5075703;28;20035;-86
2022/11/25 04:34:03;;;;;;;13.93;3.15;;;9.10;99.90;;;;;;5092409;28;20040;-86
2022/11/25 04:36:28;;;;;;;15.10;3.42;;;9.10;99.90;;;;;;5075306;28;20492;-86
2022/11/25 04:38:54;;;;;;;16.42;3.20;;;9.20;99.90;;;;;;5075330;28;20047;-86
2022/11/25 04:41:19;;;;;;;10.77;3.25;;;9.20;99.90;;;;;;5092304;28;20043;-86
2022/11/25 04:43:45;;;;;;;10.98;2.88;;;9.20;99.90;;;;;;5091910;28;20086;-86
2022/11/25 04:46:17;;;;;;;16.35;3.58;;;9.20;99.90;;;;;;5092070;28;20042;-86
2022/11/25 04:48:43;;;;;;;14.07;2.83;;;9.20;99.90;;;;;;5092352;28;20099;-87
2022/11/25 04:51:08;;;;;;;10.93;2.53;;;9.30;99.90;;;;;;5091906;28;20508;-86
2022/11/25 04:53:34;;;;;;;14.88;3.53;;;9.30;99.90;;;;;;5074760;28;20451;-86
2022/11/25 04:55:59;;;;;;;14.70;3.63;;;9.30;99.90;;;;;;5091910;28;20463;-86
2022/11/25 05:01:09;;;;;;;17.73;3.63;;;9.30;99.90;;;;;;5091565;28;20048;-86
2022/11/25 05:03:34;;;;;;;11.38;2.95;;;9.30;99.90;;;;;;5091622;28;20441;-86
2022/11/25 05:06:06;;;;;;;10.82;3.53;;;9.30;99.90;;;;;;5091798;28;20469;-86
2022/11/25 05:08:31;;;;;;;10.73;3.08;;;9.30;99.90;;;;;;5092049;28;20431;-86
2022/11/25 05:10:58;;;;;;;13.35;3.30;;;9.30;99.90;;;;;;5074835;28;20496;-86
2022/11/25 05:13:23;;;;;;;11.88;3.15;;;9.30;99.90;;;;;;5074622;28;20093;-86
2022/11/25 05:15:49;;;;;;;13.70;3.53;;;9.30;99.90;;;;;;5078974;28;20039;-85
2022/11/25 05:18:14;;;;;;;12.77;3.17;;;9.30;99.90;;;;;;5089451;28;20046;-86
2022/11/25 05:20:40;;;;;;;15.18;3.60;;;9.30;99.90;;;;;;5094617;28;20039;-86
2022/11/25 05:23:06;;;;;;;12.63;3.10;;;9.30;99.90;;;;;;5092783;28;20032;-86
2022/11/25 05:25:31;;;;;;;13.57;3.50;;;9.30;99.90;;;;;;5094725;28;20039;-86
2022/11/25 05:27:57;;;;;;;12.35;3.53;;;9.30;99.90;;;;;;5111923;28;20042;-86
2022/11/25 05:30:22;;;;;;;11.45;3.22;;;9.30;99.90;;;;;;5111768;28;20040;-86
2022/11/25 05:32:48;;;;;;;15.90;3.30;;;9.30;99.90;;;;;;5111418;28;20043;-86
2022/11/25 05:35:14;;;;;;;19.27;3.78;;;9.30;99.90;;;;;;5111350;28;20036;-88
2022/11/25 05:37:39;;;;;;;13.35;3.63;;;9.30;99.90;;;;;;5111823;28;20050;-87
2022/11/25 05:40:05;;;;;;;17.58;4.20;;;9.30;99.90;;;;;;5111435;28;20511;-87
2022/11/25 05:42:31;;;;;;;14.57;3.90;;;9.30;99.90;;;;;;5111507;28;20043;-88
2022/11/25 05:44:56;;;;;;;13.93;4.15;;;9.30;99.90;;;;;;5094499;28;20044;-87
2022/11/25 05:47:22;;;;;;;15.32;4.18;;;9.30;99.90;;;;;;5111198;28;20042;-87
2022/11/25 05:49:48;;;;;;;13.38;3.80;;;9.30;99.90;;;;;;5111264;28;20043;-87
2022/11/25 05:52:13;;;;;;;13.93;3.95;;;9.30;99.90;;;;;;5110856;28;20048;-87
2022/11/25 05:54:39;;;;;;;16.05;3.53;;;9.30;99.90;;;;;;5094587;28;20039;-87
2022/11/25 05:57:04;;;;;;;14.05;4.13;;;9.30;99.90;;;;;;5111194;28;20118;-86
2022/11/25 05:59:30;;;;;;;16.00;4.82;;;9.30;99.90;;;;;;5111130;28;20046;-87
2022/11/25 06:01:55;;;;;;;12.60;4.70;;;9.20;99.90;;;;;;5094283;28;20035;-87
2022/11/25 06:04:21;;;;;;;13.98;4.47;;;9.20;99.90;;;;;;5110943;28;20043;-87
2022/11/25 06:06:46;;;;;;;17.80;4.65;;;9.20;99.90;;;;;;5093926;28;20496;-87
2022/11/25 06:09:12;;;;;;;17.13;5.50;;;9.20;99.90;;;;;;5090272;28;20192;-87
2022/11/25 06:11:37;;;;;;;17.27;4.63;;;9.20;99.90;;;;;;5089265;28;20085;-87
2022/11/25 06:14:03;;;;;;;13.40;4.75;;;9.20;99.90;;;;;;5072174;28;20116;-87
2022/11/25 06:16:29;;;;;;;14.52;4.72;;;9.20;99.90;;;;;;5090185;28;20413;-87
2022/11/25 06:18:54;;;;;;;12.95;4.90;;;9.20;99.90;;;;;;5089323;28;20520;-87
2022/11/25 06:21:20;;;;;;;14.57;4.40;;;9.30;99.90;;;;;;5089451;28;20079;-87
2022/11/25 06:23:46;;;;;;;11.20;3.97;;;9.20;99.90;;;;;;5072575;28;20118;-87
2022/11/25 06:26:16;;;;;;;11.38;4.03;;;9.20;99.90;;;;;;5072346;28;20043;-87
2022/11/25 06:28:42;;;;;;;14.38;4.85;;;9.20;99.90;;;;;;5072618;28;20036;-87
2022/11/25 06:31:11;;;;;;;13.45;4.68;;;9.20;99.90;;;;;;5089552;28;20089;-87
2022/11/25 06:33:37;;;;;;;15.20;4.05;;;9.20;99.90;;;;;;5088544;28;20408;-87
2022/11/25 06:36:05;;;;;;;15.45;4.40;;;9.20;99.90;;;;;;5089436;28;20044;-87
2022/11/25 06:38:30;;;;;;;13.77;4.22;;;9.20;99.90;;;;;;5088721;28;20504;-87
2022/11/25 06:41:04;;;;;;;13.68;3.97;;;9.20;99.90;;;;;;5071383;28;20128;-87
2022/11/25 06:43:30;;;;;;;12.65;3.20;;;9.20;99.90;;;;;;5105552;28;20040;-86
2022/11/25 06:46:17;;;;;;;12.80;3.80;;;9.20;99.90;;;;;;5089167;28;20042;-87
2022/11/25 06:48:43;;;;;;;12.30;3.05;;;9.20;99.90;;;;;;5105572;28;20059;-87
2022/11/25 06:51:13;;;;;;;12.75;3.13;;;9.20;99.90;;;;;;5074723;28;20044;-87
2022/11/25 06:53:39;;;;;;;9.93;3.35;;;9.20;99.90;;;;;;5092921;28;20044;-87
2022/11/25 06:56:10;;;;;;;14.50;3.35;;;9.30;99.90;;;;;;5092993;28;20065;-88
2022/11/25 06:58:36;;;;;;;13.73;3.83;;;9.30;99.90;;;;;;5093118;28;20131;-87
2022/11/25 07:01:03;;;;;;;14.77;3.58;;;9.30;99.90;;;;;;5093532;28;20119;-88
2022/11/25 07:03:29;;;;;;;13.57;3.25;;;9.30;99.90;;;;;;5110237;28;20036;-88
2022/11/25 07:05:57;;;;;;;11.73;3.95;;;9.20;99.90;;;;;;5110221;28;20036;-88
2022/11/25 07:08:23;;;;;;;17.05;4.65;;;9.30;99.90;;;;;;5090815;28;20597;-88
2022/11/25 07:10:49;;;;;;;17.00;3.72;;;9.20;99.90;;;;;;5076108;28;20449;-87
2022/11/25 07:13:15;;;;;;;15.25;3.90;;;9.20;99.90;;;;;;5075814;28;20044;-87
2022/11/25 07:15:40;;;;;;;14.48;3.45;;;9.20;99.90;;;;;;5092718;28;20634;-87
2022/11/25 07:18:06;;;;;;;10.85;3.25;;;9.30;99.90;;;;;;5091868;28;20566;-87
2022/11/25 07:20:32;;;;;;;8.85;3.00;;;9.20;99.90;;;;;;5092901;28;20150;-87
2022/11/25 07:22:57;;;;;;;11.05;3.05;;;9.20;99.90;;;;;;5092432;28;20113;-87
2022/11/25 07:25:23;;;;;;;13.82;2.80;;;9.20;99.90;;;;;;5093042;28;20039;-87
2022/11/25 07:27:48;;;;;;;10.52;3.20;;;9.20;99.90;;;;;;5092758;28;20043;-87
2022/11/25 07:30:14;;;;;;;10.38;2.60;;;9.20;99.90;;;;;;5092656;28;20485;-87
2022/11/25 07:32:40;;;;;;;13.27;3.80;;;9.20;99.90;;;;;;5074835;28;20520;-88
2022/11/25 07:35:06;;;;;;;13.30;3.03;;;9.20;99.90;;;;;;5092489;28;20044;-87
2022/11/25 07:37:31;;;;;;;12.13;3.20;;;9.20;99.90;;;;;;5092940;28;20047;-87
2022/11/25 07:39:57;;;;;;;9.07;3.00;;;9.20;99.90;;;;;;5091612;28;20541;-88
2022/11/25 07:42:22;;;;;;;10.20;3.25;;;9.20;99.90;;;;;;5092362;28;20040;-88
2022/11/25 07:44:48;;;;;;;13.07;2.90;;;9.20;99.90;;;;;;5092919;28;20043;-88
2022/11/25 07:47:13;;;;;;;11.35;3.00;;;9.20;99.90;;;;;;5091549;28;20416;-87
2022/11/25 07:49:39;;;;;;;11.90;2.92;;;9.20;99.90;;;;;;5075873;28;20040;-88
2022/11/25 07:52:05;;;;;;;15.55;2.90;;;9.10;99.90;;;;;;5074715;28;20047;-87
2022/11/25 07:54:32;;;;;;;7.53;2.33;;;9.10;99.90;;;;;;5093562;28;20082;-88
2022/11/25 07:56:57;;;;;;;8.95;2.80;;;9.10;99.90;;;;;;5075251;28;20531;-87
2022/11/25 07:59:23;;;;;;;14.25;3.03;;;9.10;99.90;;;;;;5092029;28;20066;-88
2022/11/25 08:01:51;;;;;;;13.50;3.45;;;9.10;99.90;;;;;;5074389;28;20557;-87
2022/11/25 08:04:17;;;;;;;10.63;2.65;;;9.00;99.90;;;;;;5092219;28;20044;-87
2022/11/25 08:06:44;;;;;;;13.40;3.22;;;8.90;99.90;;;;;;5075493;28;20092;-88
2022/11/25 08:09:12;;;;;;;10.07;3.35;;;8.90;99.90;;;;;;5075508;28;20073;-87
2022/11/25 08:11:38;;;;;;;11.65;2.90;;;8.90;99.90;;;;;;5092280;28;20044;-88
2022/11/25 08:14:04;;;;;;;14.00;3.22;;;8.90;99.90;;;;;;5091567;28;20177;-88
2022/11/25 08:16:31;;;;;;;15.25;3.38;;;8.90;99.90;;;;;;5074209;28;20097;-87
2022/11/25 08:19:02;;;;;;;13.68;3.13;;;8.80;99.90;;;;;;5091855;28;20103;-87
2022/11/25 08:21:28;;;;;;;9.93;2.20;;;8.80;99.90;;;;;;5092165;28;20121;-88
2022/11/25 08:23:54;;;;;;;10.10;2.92;;;8.80;99.90;;;;;;5091595;28;20068;-87
2022/11/25 08:26:25;;;;;;;10.68;3.20;;;8.80;99.90;;;;;;5091549;28;20036;-87
2022/11/25 08:28:52;;;;;;;11.80;3.60;;;8.80;99.90;;;;;;5075208;28;20439;-87
2022/11/25 08:31:28;;;;;;;11.18;2.95;;;8.80;99.90;;;;;;5090970;28;20047;-87
2022/11/25 08:33:54;;;;;;;16.65;3.38;;;8.80;99.90;;;;;;5090308;28;20555;-88
2022/11/25 08:36:22;;;;;;;13.70;3.47;;;8.80;99.90;;;;;;5090397;28;20133;-88
2022/11/25 08:38:49;;;;;;;10.18;2.97;;;8.80;99.90;;;;;;5074169;28;20051;-88
2022/11/25 08:41:18;;;;;;;8.65;3.15;;;8.80;99.90;;;;;;5074871;28;20036;-87
2022/11/25 08:43:44;;;;;;;12.30;3.60;;;8.90;99.90;;;;;;5090523;28;20040;-88
2022/11/25 08:46:13;;;;;;;10.40;3.20;;;8.90;99.90;;;;;;5073902;28;20047;-87
2022/11/25 08:48:39;;;;;;;14.60;3.28;;;8.90;99.90;;;;;;5073392;28;20062;-87
2022/11/25 08:51:14;;;;;;;9.02;2.95;;;8.90;99.90;;;;;;5073893;28;20031;-87
2022/11/25 08:53:40;;;;;;;13.60;3.45;;;9.00;99.90;;;;;;5091640;28;20044;-88
2022/11/25 08:56:07;;;;;;;8.20;2.80;;;9.00;99.90;;;;;;5091163;28;20091;-87
2022/11/25 08:58:34;;;;;;;10.05;2.63;;;9.00;99.90;;;;;;5092156;28;20048;-87
2022/11/25 09:01:00;;;;;;;11.05;3.33;;;9.10;99.90;;;;;;5091133;28;20040;-87
2022/11/25 09:03:26;;;;;;;9.77;3.40;;;9.10;99.90;;;;;;5106832;28;20039;-87
2022/11/25 09:05:52;;;;;;;9.95;3.33;;;9.20;99.90;;;;;;5084403;28;20682;-87
2022/11/25 09:08:19;;;;;;;13.05;3.50;;;9.20;99.90;;;;;;5072835;28;20043;-87
2022/11/25 09:10:44;;;;;;;10.52;3.30;;;9.20;99.90;;;;;;5096386;28;20031;-87
2022/11/25 09:13:10;;;;;;;10.95;3.28;;;9.30;99.90;;;;;;5092657;28;20043;-88
2022/11/25 09:15:37;;;;;;;11.65;3.53;;;9.30;99.90;;;;;;5110133;28;20035;-88
2022/11/25 09:18:05;;;;;;;11.15;3.88;;;9.40;99.90;;;;;;5089797;28;20042;-87
2022/11/25 09:20:31;;;;;;;12.68;3.97;;;9.40;99.90;;;;;;5110780;28;20043;-87
2022/11/25 09:23:01;;;;;;;11.32;3.60;;;9.40;99.90;;;;;;5088301;28;20092;-87
2022/11/25 09:25:28;;;;;;;10.48;3.95;;;9.40;99.90;;;;;;5110283;28;20039;-88
2022/11/25 09:27:55;;;;;;;14.88;4.03;;;9.50;99.90;;;;;;5093198;28;20027;-88
2022/11/25 09:30:21;;;;;;;9.75;4.07;;;9.50;99.90;;;;;;5087933;28;20131;-88
2022/11/25 09:32:52;;;;;;;10.07;3.83;;;9.60;99.90;;;;;;5109762;28;20514;-88
2022/11/25 09:35:18;;;;;;;11.80;4.68;;;9.60;99.90;;;;;;5093401;28;20036;-88
2022/11/25 09:37:43;;;;;;;11.40;3.67;;;9.60;99.90;;;;;;5109139;28;20036;-87
2022/11/25 09:40:37;;;;;;;8.32;3.63;;;9.70;99.90;;;;;;5093665;28;20093;-87
2022/11/25 09:46:41;;;;;;;14.15;3.47;;;9.80;99.90;;;;;;5109122;28;20035;-87
2022/11/25 09:49:22;;;;;;;12.13;3.38;;;9.80;99.90;;;;;;5107169;28;20031;-87
2022/11/25 09:52:21;;;;;;;13.60;3.47;;;9.80;99.90;;;;;;5109212;28;20119;-88
2022/11/25 09:55:04;;;;;;;11.38;3.58;;;9.90;99.90;;;;;;5107555;28;20541;-87
2022/11/25 09:58:13;;;;;;;8.15;3.42;;;9.90;99.90;;;;;;5057346;28;20439;-87
2022/11/25 10:00:46;;;;;;;11.90;3.20;;;10.00;99.90;;;;;;5071583;28;20516;-87
2022/11/25 10:03:38;;;;;;;13.30;3.88;;;10.00;99.90;;;;;;5072331;28;20032;-86
2022/11/25 10:06:17;;;;;;;9.93;3.33;;;10.10;99.90;;;;;;5086943;28;20039;-86
2022/11/25 10:08:47;;;;;;;11.43;3.08;;;10.20;99.90;;;;;;5093439;28;20035;-86
2022/11/25 10:11:36;;;;;;;10.15;3.13;;;10.20;99.90;;;;;;5103282;28;20046;-88
2022/11/25 10:14:04;;;;;;;8.65;2.92;;;10.30;99.90;;;;;;5096310;28;20063;-87
2022/11/25 10:16:37;;;;;;;10.77;3.22;;;10.30;99.90;;;;;;5108693;28;20042;-86
2022/11/25 10:19:20;;;;;;;13.35;2.70;;;10.40;99.90;;;;;;5072933;28;20055;-87
2022/11/25 10:21:46;;;;;;;;;;;10.50;99.90;;;;;;5073952;28;20044;-86
2022/11/25 10:24:14;;;;;;;10.93;4.03;;;10.50;99.90;;;;;;5074576;28;19916;-86
2022/11/25 10:26:43;;;;;;;10.32;2.55;;;10.60;99.90;;;;;;5108446;28;20043;-87
2022/11/25 10:29:27;;;;;;;11.45;2.85;;;10.70;99.90;;;;;;5091642;28;20036;-86
2022/11/25 10:32:15;;;;;;;9.77;2.88;;;10.80;99.90;;;;;;5102461;28;20086;-87
2022/11/25 10:34:45;;;;;;;8.18;2.45;;;10.80;99.90;;;;;;5090215;28;20044;-86
2022/11/25 10:37:21;;;;;;;12.88;2.67;;;10.90;99.90;;;;;;5085406;28;20384;-86
2022/11/25 10:39:47;;;;;;;7.97;2.53;;;10.90;99.90;;;;;;5114205;28;20048;-86
2022/11/25 10:42:22;;;;;;;9.27;2.83;;;10.90;99.90;;;;;;5080582;28;20122;-86
2022/11/25 10:44:47;;;;;;;8.23;2.88;;;11.00;99.90;;;;;;5079899;28;20070;-87
2022/11/25 10:47:25;;;;;;;9.10;2.83;;;11.00;99.90;;;;;;5078401;28;20119;-86
2022/11/25 10:50:09;;;;;;;11.43;2.92;;;11.20;99.90;;;;;;5086003;28;20032;-87
2022/11/25 10:53:21;;;;;;;10.55;3.08;;;11.20;99.90;;;;;;5114721;28;20115;-87
2022/11/25 10:55:59;;;;;;;9.50;2.83;;;11.30;99.90;;;;;;5085580;28;20230;-86
2022/11/25 10:58:27;;;;;;;8.98;2.70;;;11.40;99.90;;;;;;5089823;28;20048;-86
2022/11/25 11:01:13;;;;;;;10.65;3.47;;;11.40;99.90;;;;;;5090731;28;20105;-86
2022/11/25 11:03:39;;;;;;;13.18;2.83;;;11.50;99.90;;;;;;5061002;28;20051;-87
2022/11/25 11:06:05;;;;;;;11.50;2.75;;;11.60;99.90;;;;;;5088667;28;20536;-88
2022/11/25 11:08:39;;;;;;;9.52;3.08;;;11.70;99.90;;;;;;5090635;28;20063;-87
2022/11/25 11:11:13;;;;;;;10.45;2.67;;;11.70;99.90;;;;;;5108996;28;20093;-88
2022/11/25 11:13:39;;;;;;;11.75;2.80;;;11.80;99.90;;;;;;5091836;28;20071;-88
2022/11/25 11:16:24;;;;;;;12.25;4.35;;;11.80;99.90;;;;;;5076861;28;20072;-88
2022/11/25 11:18:50;;;;;;;11.40;2.85;;;12.00;99.90;;;;;;5104504;28;20048;-87
2022/11/25 11:21:34;;;;;;;7.65;1.95;;;12.10;99.90;;;;;;5096237;28;20672;-87
2022/11/25 11:24:01;;;;;;;12.65;3.03;;;12.10;99.90;;;;;;5109522;28;20072;-88
2022/11/25 11:26:33;;;;;;;9.50;2.75;;;12.10;99.90;;;;;;5109293;28;20039;-87
2022/11/25 11:29:13;;;;;;;10.70;2.58;;;12.20;99.90;;;;;;5100107;28;20036;-87
2022/11/25 11:32:03;;;;;;;11.60;2.90;;;12.30;99.90;;;;;;5100356;28;20058;-88
2022/11/25 11:34:35;;;;;;;11.23;3.08;;;12.40;99.90;;;;;;5099432;28;20331;-87
2022/11/25 11:37:39;;;;;;;9.30;2.55;;;12.50;99.90;;;;;;5091181;28;20043;-88
2022/11/25 11:40:07;;;;;;;10.90;2.35;;;12.50;99.90;;;;;;5097887;28;20382;-87
2022/11/25 11:42:59;;;;;;;11.98;2.55;;;12.60;99.90;;;;;;5071620;28;20037;-87
2022/11/25 11:45:50;;;;;;;10.70;3.60;;;12.70;99.90;;;;;;5080191;28;20041;-87
2022/11/25 11:48:50;;;;;;;8.38;2.03;;;12.80;99.90;;;;;;5108741;28;20190;-88
2022/11/25 11:51:41;;;;;;;10.13;2.63;;;12.90;99.90;;;;;;5076718;28;20109;-87
2022/11/25 11:54:33;;;;;;;13.20;2.45;;;13.10;99.90;;;;;;5088465;28;20051;-88
2022/11/25 11:57:04;;;;;;;10.35;2.38;;;13.30;99.90;;;;;;5086660;28;20557;-89
2022/11/25 11:59:48;;;;;;;10.85;3.55;;;13.30;99.90;;;;;;5071866;28;20043;-89
2022/11/25 12:02:39;;;;;;;13.20;3.42;;;13.40;99.90;;;;;;5074702;28;20037;-88
2022/11/25 12:05:14;;;;;;;13.82;3.75;;;13.70;99.90;;;;;;5094181;28;20047;-89
2022/11/25 12:07:54;;;;;;;8.00;2.47;;;13.80;99.90;;;;;;5112373;28;20043;-89
2022/11/25 12:10:32;;;;;;;11.88;3.78;;;14.20;99.90;;;;;;5101581;28;20092;-89
2022/11/25 12:13:12;;;;;;;12.05;3.15;;;14.90;99.90;;;;;;5071920;28;20495;-88
2022/11/25 12:15:51;;;;;;;10.85;2.65;;;15.00;99.90;;;;;;5088639;28;20489;-88
2022/11/25 12:18:33;;;;;;;11.20;3.72;;;15.10;99.90;;;;;;5070352;28;20032;-88
2022/11/25 12:21:05;;;;;;;9.18;2.42;;;15.30;99.90;;;;;;5101869;28;20044;-89
2022/11/25 12:23:49;;;;;;;9.80;2.23;;;14.90;99.90;;;;;;5091736;28;20032;-89
2022/11/25 12:26:23;;;;;;;14.15;2.78;;;14.30;99.90;;;;;;5074891;28;20498;-89
2022/11/25 12:29:00;;;;;;;12.90;3.42;;;13.90;99.90;;;;;;5073861;28;20754;-89
2022/11/25 12:31:47;;;;;;;10.02;2.33;;;13.60;99.90;;;;;;5072616;28;20086;-88
2022/11/25 12:34:26;;;;;;;13.95;3.83;;;13.20;99.90;;;;;;5090251;28;20036;-88
2022/11/25 12:37:01;;;;;;;9.30;2.10;;;13.00;99.90;;;;;;5090281;28;20035;-89
2022/11/25 12:39:59;;;;;;;14.10;3.92;;;12.80;99.90;;;;;;5092847;28;20179;-88
2022/11/25 12:42:27;;;;;;;10.85;2.53;;;12.70;99.90;;;;;;5090218;28;20460;-88
2022/11/25 12:45:26;;;;;;;7.60;2.40;;;12.60;99.90;;;;;;5065614;28;20032;-89
2022/11/25 12:47:52;;;;;;;10.55;2.30;;;12.60;99.90;;;;;;5089801;28;20482;-89
2022/11/25 12:50:29;;;;;;;9.95;1.90;;;12.60;99.90;;;;;;5101046;28;20040;-88
2022/11/25 12:53:15;;;;;;;13.10;3.83;;;12.60;99.90;;;;;;5098237;28;20040;-89
2022/11/25 12:55:41;;;;;;;13.20;2.80;;;12.70;99.90;;;;;;5081052;28;20037;-88
2022/11/25 12:58:31;;;;;;;9.57;2.17;;;13.10;99.90;;;;;;5094152;28;20074;-88
2022/11/25 13:01:18;;;;;;;15.82;4.07;;;13.50;99.90;;;;;;5089301;28;20040;-88
2022/11/25 13:03:55;;;;;;;13.23;3.90;;;14.50;99.90;;;;;;5085176;28;20040;-88
2022/11/25 13:06:28;;;;;;;10.13;2.35;;;14.90;99.90;;;;;;5094348;28;20424;-88
2022/11/25 13:09:09;;;;;;;12.88;3.58;;;14.70;99.90;;;;;;5093659;28;20049;-88
2022/11/25 13:12:03;;;;;;;12.05;2.47;;;14.40;99.90;;;;;;5110604;28;20043;-88